sensor_id;sensor_type;location;lat;lon;timestamp;temperature;humidity
21508;DHT22;10915;54.352;9.074;2023-07-08T00:00:26;15.20;99.90
21508;DHT22;10915;54.352;9.074;2023-07-08T00:02:52;15.20;99.90
21508;DHT22;10915;54.352;9.074;2023-07-08T00:05:20;15.10;99.90
21508;DHT22;10915;54.352;9.074;2023-07-08T00:07:46;15.10;99.90
21508;DHT22;10915;54.352;9.074;2023-07-08T00:10:16;14.90;99.90
21508;DHT22;10915;54.352;9.074;2023-07-08T00:12:44;14.80;99.90
21508;DHT22;10915;54.352;9.074;2023-07-08T00:15:10;14.60;99.90
21508;DHT22;10915;54.352;9.074;2023-07-08T00:17:37;14.60;99.90
21508;DHT22;10915;54.352;9.074;2023-07-08T00:20:21;14.60;99.90
21508;DHT22;10915;54.352;9.074;2023-07-08T00:22:47;14.60;99.90
21508;DHT22;10915;54.352;9.074;2023-07-08T00:25:18;14.60;99.90
21508;DHT22;10915;54.352;9.074;2023-07-08T00:27:47;14.50;99.90
21508;DHT22;10915;54.352;9.074;2023-07-08T00:30:27;14.40;99.90
21508;DHT22;10915;54.352;9.074;2023-07-08T00:32:53;14.30;99.90
21508;DHT22;10915;54.352;9.074;2023-07-08T00:35:22;14.10;99.90
21508;DHT22;10915;54.352;9.074;2023-07-08T00:37:50;14.00;99.90
21508;DHT22;10915;54.352;9.074;2023-07-08T00:40:20;13.80;99.90
21508;DHT22;10915;54.352;9.074;2023-07-08T00:42:47;13.80;99.90
21508;DHT22;10915;54.352;9.074;2023-07-08T00:45:35;13.60;99.90
21508;DHT22;10915;54.352;9.074;2023-07-08T00:50:37;13.20;99.90
21508;DHT22;10915;54.352;9.074;2023-07-08T00:53:22;13.20;99.90
21508;DHT22;10915;54.352;9.074;2023-07-08T00:56:00;13.20;99.90
21508;DHT22;10915;54.352;9.074;2023-07-08T00:58:39;13.00;99.90
21508;DHT22;10915;54.352;9.074;2023-07-08T01:01:07;13.00;99.90
21508;DHT22;10915;54.352;9.074;2023-07-08T01:03:40;13.00;99.90
21508;DHT22;10915;54.352;9.074;2023-07-08T01:06:08;13.00;99.90
21508;DHT22;10915;54.352;9.074;2023-07-08T01:08:34;13.00;99.90
21508;DHT22;10915;54.352;9.074;2023-07-08T01:11:02;12.90;99.90
21508;DHT22;10915;54.352;9.074;2023-07-08T01:13:34;12.90;99.90
21508;DHT22;10915;54.352;9.074;2023-07-08T01:16:01;12.90;99.90
21508;DHT22;10915;54.352;9.074;2023-07-08T01:18:28;12.90;99.90
21508;DHT22;10915;54.352;9.074;2023-07-08T01:20:54;13.00;99.90
21508;DHT22;10915;54.352;9.074;2023-07-08T01:23:23;13.00;99.90
21508;DHT22;10915;54.352;9.074;2023-07-08T01:25:49;13.00;99.90
21508;DHT22;10915;54.352;9.074;2023-07-08T01:28:15;13.00;99.90
21508;DHT22;10915;54.352;9.074;2023-07-08T01:30:42;13.00;99.90
21508;DHT22;10915;54.352;9.074;2023-07-08T01:33:16;13.10;99.90
21508;DHT22;10915;54.352;9.074;2023-07-08T01:35:44;13.10;99.90
21508;DHT22;10915;54.352;9.074;2023-07-08T01:38:12;13.10;99.90
21508;DHT22;10915;54.352;9.074;2023-07-08T01:40:49;13.20;99.90
21508;DHT22;10915;54.352;9.074;2023-07-08T01:43:15;13.30;99.90
21508;DHT22;10915;54.352;9.074;2023-07-08T01:45:42;13.30;99.90
21508;DHT22;10915;54.352;9.074;2023-07-08T01:48:11;13.30;99.90
21508;DHT22;10915;54.352;9.074;2023-07-08T01:50:42;13.30;99.90
21508;DHT22;10915;54.352;9.074;2023-07-08T01:53:19;13.20;99.90
21508;DHT22;10915;54.352;9.074;2023-07-08T01:55:45;13.20;99.90
21508;DHT22;10915;54.352;9.074;2023-07-08T01:58:10;13.10;99.90
21508;DHT22;10915;54.352;9.074;2023-07-08T02:00:36;12.90;99.90
21508;DHT22;10915;54.352;9.074;2023-07-08T02:03:02;13.00;99.90
21508;DHT22;10915;54.352;9.074;2023-07-08T02:05:27;13.00;99.90
21508;DHT22;10915;54.352;9.074;2023-07-08T02:07:53;13.10;99.90
21508;DHT22;10915;54.352;9.074;2023-07-08T02:10:18;13.00;99.90
21508;DHT22;10915;54.352;9.074;2023-07-08T02:12:44;12.80;99.90
21508;DHT22;10915;54.352;9.074;2023-07-08T02:15:10;12.60;99.90
21508;DHT22;10915;54.352;9.074;2023-07-08T02:17:36;12.50;99.90
21508;DHT22;10915;54.352;9.074;2023-07-08T02:20:01;12.60;99.90
21508;DHT22;10915;54.352;9.074;2023-07-08T02:22:28;12.50;99.90
21508;DHT22;10915;54.352;9.074;2023-07-08T02:24:53;12.40;99.90
21508;DHT22;10915;54.352;9.074;2023-07-08T02:27:19;12.40;99.90
21508;DHT22;10915;54.352;9.074;2023-07-08T02:29:44;12.30;99.90
21508;DHT22;10915;54.352;9.074;2023-07-08T02:32:10;12.20;99.90
21508;DHT22;10915;54.352;9.074;2023-07-08T02:34:36;12.10;99.90
21508;DHT22;10915;54.352;9.074;2023-07-08T02:37:02;12.10;99.90
21508;DHT22;10915;54.352;9.074;2023-07-08T02:39:28;12.20;99.90
21508;DHT22;10915;54.352;9.074;2023-07-08T02:41:54;12.20;99.90
21508;DHT22;10915;54.352;9.074;2023-07-08T02:44:19;12.20;99.90
21508;DHT22;10915;54.352;9.074;2023-07-08T02:46:45;12.30;99.90
21508;DHT22;10915;54.352;9.074;2023-07-08T02:49:11;12.30;99.90
21508;DHT22;10915;54.352;9.074;2023-07-08T02:51:36;12.30;99.90
21508;DHT22;10915;54.352;9.074;2023-07-08T02:54:02;12.40;99.90
21508;DHT22;10915;54.352;9.074;2023-07-08T02:56:27;12.40;99.90
21508;DHT22;10915;54.352;9.074;2023-07-08T02:58:53;12.40;99.90
21508;DHT22;10915;54.352;9.074;2023-07-08T03:01:19;12.30;99.90
21508;DHT22;10915;54.352;9.074;2023-07-08T03:03:47;12.20;99.90
21508;DHT22;10915;54.352;9.074;2023-07-08T03:06:13;12.10;99.90
21508;DHT22;10915;54.352;9.074;2023-07-08T03:08:39;12.10;99.90
21508;DHT22;10915;54.352;9.074;2023-07-08T03:11:07;12.10;99.90
21508;DHT22;10915;54.352;9.074;2023-07-08T03:13:34;12.00;99.90
21508;DHT22;10915;54.352;9.074;2023-07-08T03:16:01;11.90;99.90
21508;DHT22;10915;54.352;9.074;2023-07-08T03:18:28;11.90;99.90
21508;DHT22;10915;54.352;9.074;2023-07-08T03:20:55;11.80;99.90
21508;DHT22;10915;54.352;9.074;2023-07-08T03:23:22;11.90;99.90
21508;DHT22;10915;54.352;9.074;2023-07-08T03:25:47;11.80;99.90
21508;DHT22;10915;54.352;9.074;2023-07-08T03:28:13;11.90;99.90
21508;DHT22;10915;54.352;9.074;2023-07-08T03:30:44;12.00;99.90
21508;DHT22;10915;54.352;9.074;2023-07-08T03:33:11;12.00;99.90
21508;DHT22;10915;54.352;9.074;2023-07-08T03:35:37;12.10;99.90
21508;DHT22;10915;54.352;9.074;2023-07-08T03:38:04;12.10;99.90
21508;DHT22;10915;54.352;9.074;2023-07-08T03:40:30;12.10;99.90
21508;DHT22;10915;54.352;9.074;2023-07-08T03:42:56;12.10;99.90
21508;DHT22;10915;54.352;9.074;2023-07-08T03:45:22;12.20;99.90
21508;DHT22;10915;54.352;9.074;2023-07-08T03:47:47;12.20;99.90
21508;DHT22;10915;54.352;9.074;2023-07-08T03:50:24;12.20;99.90
21508;DHT22;10915;54.352;9.074;2023-07-08T03:52:52;12.30;99.90
21508;DHT22;10915;54.352;9.074;2023-07-08T03:55:19;12.30;99.90
21508;DHT22;10915;54.352;9.074;2023-07-08T03:57:45;12.40;99.90
21508;DHT22;10915;54.352;9.074;2023-07-08T04:00:11;12.40;99.90
21508;DHT22;10915;54.352;9.074;2023-07-08T04:02:41;12.40;99.90
21508;DHT22;10915;54.352;9.074;2023-07-08T04:05:09;12.40;99.90
21508;DHT22;10915;54.352;9.074;2023-07-08T04:07:35;12.40;99.90
21508;DHT22;10915;54.352;9.074;2023-07-08T04:10:00;12.40;99.90
21508;DHT22;10915;54.352;9.074;2023-07-08T04:12:27;12.50;99.90
21508;DHT22;10915;54.352;9.074;2023-07-08T04:14:53;12.60;99.90
21508;DHT22;10915;54.352;9.074;2023-07-08T04:17:19;12.70;99.90
21508;DHT22;10915;54.352;9.074;2023-07-08T04:19:45;12.70;99.90
21508;DHT22;10915;54.352;9.074;2023-07-08T04:22:11;12.80;99.90
21508;DHT22;10915;54.352;9.074;2023-07-08T04:24:36;12.80;99.90
21508;DHT22;10915;54.352;9.074;2023-07-08T04:27:02;12.90;99.90
21508;DHT22;10915;54.352;9.074;2023-07-08T04:29:28;13.00;99.90
21508;DHT22;10915;54.352;9.074;2023-07-08T04:31:54;13.10;99.90
21508;DHT22;10915;54.352;9.074;2023-07-08T04:34:20;13.20;99.90
21508;DHT22;10915;54.352;9.074;2023-07-08T04:36:45;13.30;99.90
21508;DHT22;10915;54.352;9.074;2023-07-08T04:39:11;13.30;99.90
21508;DHT22;10915;54.352;9.074;2023-07-08T04:41:37;13.40;99.90
21508;DHT22;10915;54.352;9.074;2023-07-08T04:44:10;13.50;99.90
21508;DHT22;10915;54.352;9.074;2023-07-08T04:46:56;13.60;99.90
21508;DHT22;10915;54.352;9.074;2023-07-08T04:49:22;13.70;99.90
21508;DHT22;10915;54.352;9.074;2023-07-08T04:51:49;13.90;99.90
21508;DHT22;10915;54.352;9.074;2023-07-08T04:54:15;14.00;99.90
21508;DHT22;10915;54.352;9.074;2023-07-08T04:56:42;14.20;99.90
21508;DHT22;10915;54.352;9.074;2023-07-08T04:59:19;14.30;99.90
21508;DHT22;10915;54.352;9.074;2023-07-08T05:01:45;14.40;99.90
21508;DHT22;10915;54.352;9.074;2023-07-08T05:04:13;14.50;99.90
21508;DHT22;10915;54.352;9.074;2023-07-08T05:06:39;14.60;99.90
21508;DHT22;10915;54.352;9.074;2023-07-08T05:09:05;14.70;99.90
21508;DHT22;10915;54.352;9.074;2023-07-08T05:11:31;14.80;99.90
21508;DHT22;10915;54.352;9.074;2023-07-08T05:13:57;14.90;99.90
21508;DHT22;10915;54.352;9.074;2023-07-08T05:16:24;15.00;99.90
21508;DHT22;10915;54.352;9.074;2023-07-08T05:18:49;15.10;99.90
21508;DHT22;10915;54.352;9.074;2023-07-08T05:21:15;15.20;99.90
21508;DHT22;10915;54.352;9.074;2023-07-08T05:23:41;15.30;99.90
21508;DHT22;10915;54.352;9.074;2023-07-08T05:26:07;15.50;99.90
21508;DHT22;10915;54.352;9.074;2023-07-08T05:28:33;15.70;99.90
21508;DHT22;10915;54.352;9.074;2023-07-08T05:30:59;15.90;99.90
21508;DHT22;10915;54.352;9.074;2023-07-08T05:33:27;15.90;99.90
21508;DHT22;10915;54.352;9.074;2023-07-08T05:35:53;16.00;99.90
21508;DHT22;10915;54.352;9.074;2023-07-08T05:38:19;16.10;99.90
21508;DHT22;10915;54.352;9.074;2023-07-08T05:40:54;16.10;99.90
21508;DHT22;10915;54.352;9.074;2023-07-08T05:43:20;16.20;99.90
21508;DHT22;10915;54.352;9.074;2023-07-08T05:45:49;16.30;99.90
21508;DHT22;10915;54.352;9.074;2023-07-08T05:48:15;16.40;99.90
21508;DHT22;10915;54.352;9.074;2023-07-08T05:50:41;16.50;99.90
21508;DHT22;10915;54.352;9.074;2023-07-08T05:53:10;16.60;99.90
21508;DHT22;10915;54.352;9.074;2023-07-08T05:55:37;16.80;99.90
21508;DHT22;10915;54.352;9.074;2023-07-08T05:58:02;17.00;99.90
21508;DHT22;10915;54.352;9.074;2023-07-08T06:00:28;17.10;99.90
21508;DHT22;10915;54.352;9.074;2023-07-08T06:02:54;17.30;99.90
21508;DHT22;10915;54.352;9.074;2023-07-08T06:05:19;17.30;99.90
21508;DHT22;10915;54.352;9.074;2023-07-08T06:07:45;17.30;99.90
21508;DHT22;10915;54.352;9.074;2023-07-08T06:10:11;17.30;99.90
21508;DHT22;10915;54.352;9.074;2023-07-08T06:12:37;17.50;99.90
21508;DHT22;10915;54.352;9.074;2023-07-08T06:15:03;17.60;99.90
21508;DHT22;10915;54.352;9.074;2023-07-08T06:17:28;17.70;99.90
21508;DHT22;10915;54.352;9.074;2023-07-08T06:19:54;17.70;99.90
21508;DHT22;10915;54.352;9.074;2023-07-08T06:22:20;17.90;99.90
21508;DHT22;10915;54.352;9.074;2023-07-08T06:24:45;18.00;99.90
21508;DHT22;10915;54.352;9.074;2023-07-08T06:27:13;18.00;99.90
21508;DHT22;10915;54.352;9.074;2023-07-08T06:29:38;18.20;99.90
21508;DHT22;10915;54.352;9.074;2023-07-08T06:32:04;18.30;99.90
21508;DHT22;10915;54.352;9.074;2023-07-08T06:34:31;18.40;99.90
21508;DHT22;10915;54.352;9.074;2023-07-08T06:37:01;18.30;99.90
21508;DHT22;10915;54.352;9.074;2023-07-08T06:39:37;18.50;99.90
21508;DHT22;10915;54.352;9.074;2023-07-08T06:42:02;18.50;99.90
21508;DHT22;10915;54.352;9.074;2023-07-08T06:44:29;18.70;99.90
21508;DHT22;10915;54.352;9.074;2023-07-08T06:46:55;18.80;99.90
21508;DHT22;10915;54.352;9.074;2023-07-08T06:49:20;18.90;99.90
21508;DHT22;10915;54.352;9.074;2023-07-08T06:51:46;19.00;99.90
21508;DHT22;10915;54.352;9.074;2023-07-08T06:54:14;19.00;99.90
21508;DHT22;10915;54.352;9.074;2023-07-08T06:57:22;19.10;99.90
21508;DHT22;10915;54.352;9.074;2023-07-08T06:59:40;19.10;99.90
21508;DHT22;10915;54.352;9.074;2023-07-08T07:02:07;19.20;99.90
21508;DHT22;10915;54.352;9.074;2023-07-08T07:04:33;19.40;99.90
21508;DHT22;10915;54.352;9.074;2023-07-08T07:07:22;19.40;99.90
21508;DHT22;10915;54.352;9.074;2023-07-08T07:09:50;19.50;99.90
21508;DHT22;10915;54.352;9.074;2023-07-08T07:12:26;19.70;99.90
21508;DHT22;10915;54.352;9.074;2023-07-08T07:17:56;19.80;99.90
21508;DHT22;10915;54.352;9.074;2023-07-08T07:20:22;19.90;99.90
21508;DHT22;10915;54.352;9.074;2023-07-08T07:22:56;20.10;99.90
21508;DHT22;10915;54.352;9.074;2023-07-08T07:25:22;20.20;99.90
21508;DHT22;10915;54.352;9.074;2023-07-08T07:28:06;20.30;99.90
21508;DHT22;10915;54.352;9.074;2023-07-08T07:30:32;20.40;99.90
21508;DHT22;10915;54.352;9.074;2023-07-08T07:33:06;20.50;99.90
21508;DHT22;10915;54.352;9.074;2023-07-08T07:35:35;20.60;99.90
21508;DHT22;10915;54.352;9.074;2023-07-08T07:38:33;20.80;99.90
21508;DHT22;10915;54.352;9.074;2023-07-08T07:41:09;20.80;99.90
21508;DHT22;10915;54.352;9.074;2023-07-08T07:43:36;20.90;99.90
21508;DHT22;10915;54.352;9.074;2023-07-08T07:49:36;21.00;99.90
21508;DHT22;10915;54.352;9.074;2023-07-08T07:52:24;21.30;99.90
21508;DHT22;10915;54.352;9.074;2023-07-08T07:54:53;21.40;99.90
21508;DHT22;10915;54.352;9.074;2023-07-08T07:57:25;21.60;99.90
21508;DHT22;10915;54.352;9.074;2023-07-08T08:00:00;21.70;99.90
21508;DHT22;10915;54.352;9.074;2023-07-08T08:02:26;21.90;99.90
21508;DHT22;10915;54.352;9.074;2023-07-08T08:04:52;22.00;99.90
21508;DHT22;10915;54.352;9.074;2023-07-08T08:07:17;22.10;99.90
21508;DHT22;10915;54.352;9.074;2023-07-08T08:09:43;22.40;99.90
21508;DHT22;10915;54.352;9.074;2023-07-08T08:12:10;22.60;99.90
21508;DHT22;10915;54.352;9.074;2023-07-08T08:14:44;23.00;99.90
21508;DHT22;10915;54.352;9.074;2023-07-08T08:17:34;23.30;99.90
21508;DHT22;10915;54.352;9.074;2023-07-08T08:20:03;23.50;99.90
21508;DHT22;10915;54.352;9.074;2023-07-08T08:22:28;23.80;99.90
21508;DHT22;10915;54.352;9.074;2023-07-08T08:25:08;24.20;99.90
21508;DHT22;10915;54.352;9.074;2023-07-08T08:27:35;24.40;99.90
21508;DHT22;10915;54.352;9.074;2023-07-08T08:30:05;24.50;99.90
21508;DHT22;10915;54.352;9.074;2023-07-08T08:32:31;24.60;99.90
21508;DHT22;10915;54.352;9.074;2023-07-08T08:34:57;24.50;99.90
21508;DHT22;10915;54.352;9.074;2023-07-08T08:37:57;24.40;99.90
21508;DHT22;10915;54.352;9.074;2023-07-08T08:40:31;24.50;99.90
21508;DHT22;10915;54.352;9.074;2023-07-08T08:43:41;24.40;99.90
21508;DHT22;10915;54.352;9.074;2023-07-08T08:50:41;24.40;99.90
21508;DHT22;10915;54.352;9.074;2023-07-08T08:53:56;24.20;99.90
21508;DHT22;10915;54.352;9.074;2023-07-08T09:19:43;24.50;99.90
21508;DHT22;10915;54.352;9.074;2023-07-08T09:26:15;24.80;99.90
21508;DHT22;10915;54.352;9.074;2023-07-08T09:28:50;24.90;99.90
21508;DHT22;10915;54.352;9.074;2023-07-08T09:31:38;24.90;99.90
21508;DHT22;10915;54.352;9.074;2023-07-08T09:38:17;25.30;99.90
21508;DHT22;10915;54.352;9.074;2023-07-08T09:46:58;25.40;99.90
21508;DHT22;10915;54.352;9.074;2023-07-08T09:49:44;25.60;99.90
21508;DHT22;10915;54.352;9.074;2023-07-08T09:52:12;25.50;99.90
21508;DHT22;10915;54.352;9.074;2023-07-08T09:54:55;25.50;99.90
21508;DHT22;10915;54.352;9.074;2023-07-08T09:57:51;25.50;99.90
21508;DHT22;10915;54.352;9.074;2023-07-08T10:00:42;25.60;99.90
21508;DHT22;10915;54.352;9.074;2023-07-08T10:03:34;25.60;99.90
21508;DHT22;10915;54.352;9.074;2023-07-08T10:06:08;25.70;99.90
21508;DHT22;10915;54.352;9.074;2023-07-08T10:08:43;25.80;99.90
21508;DHT22;10915;54.352;9.074;2023-07-08T10:11:29;25.90;99.90
21508;DHT22;10915;54.352;9.074;2023-07-08T10:14:11;26.10;99.90
21508;DHT22;10915;54.352;9.074;2023-07-08T10:16:41;25.90;99.90
21508;DHT22;10915;54.352;9.074;2023-07-08T10:19:13;25.80;99.90
21508;DHT22;10915;54.352;9.074;2023-07-08T10:27:33;26.00;99.90
21508;DHT22;10915;54.352;9.074;2023-07-08T10:35:39;26.30;99.90
21508;DHT22;10915;54.352;9.074;2023-07-08T10:40:48;26.70;99.90
21508;DHT22;10915;54.352;9.074;2023-07-08T11:00:28;27.10;99.90
21508;DHT22;10915;54.352;9.074;2023-07-08T11:03:20;26.90;99.90
21508;DHT22;10915;54.352;9.074;2023-07-08T11:06:06;26.60;99.90
21508;DHT22;10915;54.352;9.074;2023-07-08T11:11:19;27.30;99.90
21508;DHT22;10915;54.352;9.074;2023-07-08T11:13:54;27.30;99.90
21508;DHT22;10915;54.352;9.074;2023-07-08T11:16:31;27.10;99.90
21508;DHT22;10915;54.352;9.074;2023-07-08T11:19:13;27.00;99.90
21508;DHT22;10915;54.352;9.074;2023-07-08T11:21:45;26.70;99.90
21508;DHT22;10915;54.352;9.074;2023-07-08T11:24:27;26.70;99.90
21508;DHT22;10915;54.352;9.074;2023-07-08T11:27:02;26.60;99.90
21508;DHT22;10915;54.352;9.074;2023-07-08T11:29:46;26.70;99.90
21508;DHT22;10915;54.352;9.074;2023-07-08T11:32:52;26.90;99.90
21508;DHT22;10915;54.352;9.074;2023-07-08T11:35:46;27.00;99.90
21508;DHT22;10915;54.352;9.074;2023-07-08T11:38:19;26.90;99.90
21508;DHT22;10915;54.352;9.074;2023-07-08T11:41:22;26.90;99.90
21508;DHT22;10915;54.352;9.074;2023-07-08T11:47:49;27.40;99.90
21508;DHT22;10915;54.352;9.074;2023-07-08T11:50:32;27.40;99.90
21508;DHT22;10915;54.352;9.074;2023-07-08T11:53:31;27.30;99.90
21508;DHT22;10915;54.352;9.074;2023-07-08T11:59:26;27.30;99.90
21508;DHT22;10915;54.352;9.074;2023-07-08T12:02:04;27.40;99.90
21508;DHT22;10915;54.352;9.074;2023-07-08T12:09:56;27.40;99.90
21508;DHT22;10915;54.352;9.074;2023-07-08T12:12:13;27.20;99.90
21508;DHT22;10915;54.352;9.074;2023-07-08T12:14:53;27.30;99.90
21508;DHT22;10915;54.352;9.074;2023-07-08T12:26:40;27.40;99.90
21508;DHT22;10915;54.352;9.074;2023-07-08T12:29:23;27.30;99.90
21508;DHT22;10915;54.352;9.074;2023-07-08T12:32:08;27.30;99.90
21508;DHT22;10915;54.352;9.074;2023-07-08T12:34:44;27.20;99.90
21508;DHT22;10915;54.352;9.074;2023-07-08T12:37:35;27.40;99.90
21508;DHT22;10915;54.352;9.074;2023-07-08T12:40:00;27.40;99.90
21508;DHT22;10915;54.352;9.074;2023-07-08T12:42:31;27.60;99.90
21508;DHT22;10915;54.352;9.074;2023-07-08T12:44:57;27.80;99.90
21508;DHT22;10915;54.352;9.074;2023-07-08T12:47:23;28.00;99.90
21508;DHT22;10915;54.352;9.074;2023-07-08T12:49:48;28.00;99.90
21508;DHT22;10915;54.352;9.074;2023-07-08T12:52:32;27.90;99.90
21508;DHT22;10915;54.352;9.074;2023-07-08T12:54:57;27.90;99.90
21508;DHT22;10915;54.352;9.074;2023-07-08T12:57:23;27.90;99.90
21508;DHT22;10915;54.352;9.074;2023-07-08T12:59:48;28.00;99.90
21508;DHT22;10915;54.352;9.074;2023-07-08T13:02:17;28.20;99.90
21508;DHT22;10915;54.352;9.074;2023-07-08T13:04:45;28.20;99.90
21508;DHT22;10915;54.352;9.074;2023-07-08T13:09:56;28.30;99.90
21508;DHT22;10915;54.352;9.074;2023-07-08T13:12:22;28.30;99.90
21508;DHT22;10915;54.352;9.074;2023-07-08T13:14:51;28.30;99.90
21508;DHT22;10915;54.352;9.074;2023-07-08T13:17:18;28.40;99.90
21508;DHT22;10915;54.352;9.074;2023-07-08T13:19:44;28.40;99.90
21508;DHT22;10915;54.352;9.074;2023-07-08T13:22:18;28.20;99.90
21508;DHT22;10915;54.352;9.074;2023-07-08T13:24:44;28.20;99.90
21508;DHT22;10915;54.352;9.074;2023-07-08T13:27:31;28.20;99.90
21508;DHT22;10915;54.352;9.074;2023-07-08T13:30:18;28.10;99.90
21508;DHT22;10915;54.352;9.074;2023-07-08T13:32:44;28.20;99.90
21508;DHT22;10915;54.352;9.074;2023-07-08T13:35:39;28.20;99.90
21508;DHT22;10915;54.352;9.074;2023-07-08T13:38:06;28.20;99.90
21508;DHT22;10915;54.352;9.074;2023-07-08T13:40:44;28.30;99.90
21508;DHT22;10915;54.352;9.074;2023-07-08T13:43:10;28.20;99.90
21508;DHT22;10915;54.352;9.074;2023-07-08T13:45:36;28.30;99.90
21508;DHT22;10915;54.352;9.074;2023-07-08T13:53:51;28.40;99.90
21508;DHT22;10915;54.352;9.074;2023-07-08T13:56:30;28.50;99.90
21508;DHT22;10915;54.352;9.074;2023-07-08T13:59:03;28.70;99.90
21508;DHT22;10915;54.352;9.074;2023-07-08T14:01:31;28.30;99.90
21508;DHT22;10915;54.352;9.074;2023-07-08T14:03:57;28.20;99.90
21508;DHT22;10915;54.352;9.074;2023-07-08T14:06:25;28.10;99.90
21508;DHT22;10915;54.352;9.074;2023-07-08T14:08:55;27.90;99.90
21508;DHT22;10915;54.352;9.074;2023-07-08T14:11:21;27.70;99.90
21508;DHT22;10915;54.352;9.074;2023-07-08T14:13:47;27.60;99.90
21508;DHT22;10915;54.352;9.074;2023-07-08T14:16:25;27.50;99.90
21508;DHT22;10915;54.352;9.074;2023-07-08T14:18:53;27.40;99.90
21508;DHT22;10915;54.352;9.074;2023-07-08T14:21:18;27.30;99.90
21508;DHT22;10915;54.352;9.074;2023-07-08T14:23:44;27.20;99.90
21508;DHT22;10915;54.352;9.074;2023-07-08T14:26:11;27.10;99.90
21508;DHT22;10915;54.352;9.074;2023-07-08T14:28:37;27.20;99.90
21508;DHT22;10915;54.352;9.074;2023-07-08T14:31:04;27.20;99.90
21508;DHT22;10915;54.352;9.074;2023-07-08T14:33:33;27.20;99.90
21508;DHT22;10915;54.352;9.074;2023-07-08T14:35:59;27.10;99.90
21508;DHT22;10915;54.352;9.074;2023-07-08T14:38:24;27.00;99.90
21508;DHT22;10915;54.352;9.074;2023-07-08T14:40:50;26.90;99.90
21508;DHT22;10915;54.352;9.074;2023-07-08T14:43:20;26.90;99.90
21508;DHT22;10915;54.352;9.074;2023-07-08T14:45:56;26.80;99.90
21508;DHT22;10915;54.352;9.074;2023-07-08T14:48:23;26.80;99.90
21508;DHT22;10915;54.352;9.074;2023-07-08T14:50:49;26.60;99.90
21508;DHT22;10915;54.352;9.074;2023-07-08T14:53:16;26.40;99.90
21508;DHT22;10915;54.352;9.074;2023-07-08T14:55:44;26.50;99.90
21508;DHT22;10915;54.352;9.074;2023-07-08T14:58:24;26.40;99.90
21508;DHT22;10915;54.352;9.074;2023-07-08T15:00:53;26.40;99.90
21508;DHT22;10915;54.352;9.074;2023-07-08T15:03:19;26.40;99.90
21508;DHT22;10915;54.352;9.074;2023-07-08T15:05:45;26.40;99.90
21508;DHT22;10915;54.352;9.074;2023-07-08T15:08:11;26.40;99.90
21508;DHT22;10915;54.352;9.074;2023-07-08T15:10:36;26.40;99.90
21508;DHT22;10915;54.352;9.074;2023-07-08T15:13:03;26.40;99.90
21508;DHT22;10915;54.352;9.074;2023-07-08T15:15:34;26.30;99.90
21508;DHT22;10915;54.352;9.074;2023-07-08T15:18:15;26.40;99.90
21508;DHT22;10915;54.352;9.074;2023-07-08T15:20:42;26.30;99.90
21508;DHT22;10915;54.352;9.074;2023-07-08T15:23:08;26.30;99.90
21508;DHT22;10915;54.352;9.074;2023-07-08T15:25:34;26.30;99.90
21508;DHT22;10915;54.352;9.074;2023-07-08T15:28:02;26.20;99.90
21508;DHT22;10915;54.352;9.074;2023-07-08T15:30:29;26.30;99.90
21508;DHT22;10915;54.352;9.074;2023-07-08T15:32:55;26.30;99.90
21508;DHT22;10915;54.352;9.074;2023-07-08T15:35:24;26.20;99.90
21508;DHT22;10915;54.352;9.074;2023-07-08T15:37:51;26.20;99.90
21508;DHT22;10915;54.352;9.074;2023-07-08T15:40:19;26.30;99.90
21508;DHT22;10915;54.352;9.074;2023-07-08T15:42:53;26.30;99.90
21508;DHT22;10915;54.352;9.074;2023-07-08T15:47:50;26.30;99.90
21508;DHT22;10915;54.352;9.074;2023-07-08T15:50:24;26.30;99.90
21508;DHT22;10915;54.352;9.074;2023-07-08T15:52:51;26.30;99.90
21508;DHT22;10915;54.352;9.074;2023-07-08T15:55:38;26.20;99.90
21508;DHT22;10915;54.352;9.074;2023-07-08T15:58:15;26.10;99.90
21508;DHT22;10915;54.352;9.074;2023-07-08T16:00:44;26.10;99.90
21508;DHT22;10915;54.352;9.074;2023-07-08T16:03:24;26.10;99.90
21508;DHT22;10915;54.352;9.074;2023-07-08T16:05:51;26.10;99.90
21508;DHT22;10915;54.352;9.074;2023-07-08T16:08:17;26.10;99.90
21508;DHT22;10915;54.352;9.074;2023-07-08T16:10:48;26.00;99.90
21508;DHT22;10915;54.352;9.074;2023-07-08T16:13:22;26.00;99.90
21508;DHT22;10915;54.352;9.074;2023-07-08T16:15:48;26.00;99.90
21508;DHT22;10915;54.352;9.074;2023-07-08T16:18:14;25.90;99.90
21508;DHT22;10915;54.352;9.074;2023-07-08T16:20:39;25.80;99.90
21508;DHT22;10915;54.352;9.074;2023-07-08T16:23:05;25.70;99.90
21508;DHT22;10915;54.352;9.074;2023-07-08T16:25:36;25.50;99.90
21508;DHT22;10915;54.352;9.074;2023-07-08T16:28:03;25.50;99.90
21508;DHT22;10915;54.352;9.074;2023-07-08T16:30:29;25.40;99.90
21508;DHT22;10915;54.352;9.074;2023-07-08T16:32:55;25.30;99.90
21508;DHT22;10915;54.352;9.074;2023-07-08T16:35:22;25.20;99.90
21508;DHT22;10915;54.352;9.074;2023-07-08T16:37:50;25.20;99.90
21508;DHT22;10915;54.352;9.074;2023-07-08T16:40:18;25.10;99.90
21508;DHT22;10915;54.352;9.074;2023-07-08T16:42:46;25.10;99.90
21508;DHT22;10915;54.352;9.074;2023-07-08T16:45:14;25.10;99.90
21508;DHT22;10915;54.352;9.074;2023-07-08T16:47:40;25.20;99.90
21508;DHT22;10915;54.352;9.074;2023-07-08T16:50:06;25.10;99.90
21508;DHT22;10915;54.352;9.074;2023-07-08T16:52:33;25.10;99.90
21508;DHT22;10915;54.352;9.074;2023-07-08T16:54:59;25.10;99.90
21508;DHT22;10915;54.352;9.074;2023-07-08T16:57:25;25.10;99.90
21508;DHT22;10915;54.352;9.074;2023-07-08T16:59:53;25.10;99.90
21508;DHT22;10915;54.352;9.074;2023-07-08T17:02:19;25.10;99.90
21508;DHT22;10915;54.352;9.074;2023-07-08T17:04:50;24.90;99.90
21508;DHT22;10915;54.352;9.074;2023-07-08T17:07:17;24.90;99.90
21508;DHT22;10915;54.352;9.074;2023-07-08T17:09:42;24.90;99.90
21508;DHT22;10915;54.352;9.074;2023-07-08T17:12:08;24.80;99.90
21508;DHT22;10915;54.352;9.074;2023-07-08T17:14:35;24.60;99.90
21508;DHT22;10915;54.352;9.074;2023-07-08T17:17:02;24.40;99.90
21508;DHT22;10915;54.352;9.074;2023-07-08T17:19:28;24.40;99.90
21508;DHT22;10915;54.352;9.074;2023-07-08T17:21:54;24.30;99.90
21508;DHT22;10915;54.352;9.074;2023-07-08T17:24:19;24.20;99.90
21508;DHT22;10915;54.352;9.074;2023-07-08T17:26:47;24.00;99.90
21508;DHT22;10915;54.352;9.074;2023-07-08T17:29:12;24.00;99.90
21508;DHT22;10915;54.352;9.074;2023-07-08T17:31:39;23.80;99.90
21508;DHT22;10915;54.352;9.074;2023-07-08T17:34:05;23.70;99.90
21508;DHT22;10915;54.352;9.074;2023-07-08T17:36:33;23.60;99.90
21508;DHT22;10915;54.352;9.074;2023-07-08T17:39:00;23.50;99.90
21508;DHT22;10915;54.352;9.074;2023-07-08T17:41:26;23.50;99.90
21508;DHT22;10915;54.352;9.074;2023-07-08T17:43:51;23.40;99.90
21508;DHT22;10915;54.352;9.074;2023-07-08T17:46:20;23.40;99.90